Time;durP1;ratioP1;P1;durP2;ratioP2;P2;SDS_P1;SDS_P2;PMS_P1;PMS_P2;Temp;Humidity;BMP_temperature;BMP_pressure;BME280_temperature;BME280_humidity;BME280_pressure;Samples;Min_cycle;Max_cycle;Signal;HPM_P1;HPM_P2
2023/01/30 00:02:23;;;;;;;24.23;20.20;;;-3.60;99.90;;;-2.99;96.60;98596.25;5223075;28;20251;-78
2023/01/30 00:04:56;;;;;;;27.87;20.70;;;-3.60;99.90;;;-3.02;97.61;98595.88;5217222;28;20212;-78
2023/01/30 00:07:30;;;;;;;25.10;20.30;;;-3.70;99.90;;;-3.07;97.12;98583.53;5218915;28;20220;-78
2023/01/30 00:10:04;;;;;;;27.20;21.30;;;-3.70;99.90;;;-3.02;98.02;98582.50;5222318;28;20251;-77
2023/01/30 00:12:37;;;;;;;28.63;23.20;;;-3.60;99.90;;;-3.04;97.14;98588.91;5221198;28;20304;-79
2023/01/30 00:15:10;;;;;;;31.10;23.73;;;-3.70;99.90;;;-3.02;98.33;98575.88;5217397;28;20308;-77
2023/01/30 00:17:45;;;;;;;47.10;32.97;;;-3.70;99.90;;;-3.11;97.70;98571.38;5217321;28;20196;-78
2023/01/30 00:20:18;;;;;;;58.47;36.87;;;-3.80;99.90;;;-3.11;98.16;98562.28;5218042;28;20198;-78
2023/01/30 00:22:51;;;;;;;49.37;33.77;;;-3.70;99.90;;;-3.04;98.54;98559.78;5222634;28;20228;-78
2023/01/30 00:25:33;;;;;;;49.73;33.23;;;-3.70;99.90;;;-3.06;98.27;98557.81;5215877;28;20297;-78
2023/01/30 00:28:06;;;;;;;39.43;27.60;;;-3.70;99.90;;;-3.11;98.14;98546.38;5217967;28;20248;-78
2023/01/30 00:30:39;;;;;;;44.67;30.77;;;-3.80;99.90;;;-3.13;97.59;98551.19;5217253;28;20204;-79
2023/01/30 00:33:14;;;;;;;50.47;33.40;;;-3.70;99.90;;;-3.13;97.90;98547.81;5219969;28;20579;-77
2023/01/30 00:35:50;;;;;;;49.60;31.40;;;-3.80;99.90;;;-3.18;98.11;98543.16;5227156;28;20285;-78
2023/01/30 00:38:23;;;;;;;47.37;31.23;;;-3.80;99.90;;;-3.12;97.96;98539.59;5226328;28;20287;-78
2023/01/30 00:40:57;;;;;;;44.40;30.90;;;-3.80;99.90;;;-3.10;97.65;98533.16;5220072;28;20202;-78
2023/01/30 00:49:19;;;;;;;36.43;25.80;;;-3.80;99.90;;;-3.02;97.37;98530.88;5224984;28;20233;-79
2023/01/30 00:51:52;;;;;;;30.60;22.87;;;-3.70;99.90;;;-3.08;98.16;98537.66;5224423;28;20247;-79
2023/01/30 00:54:25;;;;;;;29.87;21.60;;;-3.80;99.90;;;-3.11;97.33;98541.38;5225968;28;20225;-78
2023/01/30 00:56:58;;;;;;;29.43;22.10;;;-3.80;99.90;;;-3.15;97.90;98545.09;5225429;28;20248;-78
2023/01/30 00:59:31;;;;;;;30.23;23.10;;;-3.80;99.90;;;-3.20;97.71;98542.06;5224996;28;20205;-78
2023/01/30 01:02:04;;;;;;;29.90;22.37;;;-3.80;99.90;;;-3.24;98.42;98542.41;5226219;28;20224;-78
2023/01/30 01:04:42;;;;;;;29.27;21.77;;;-3.80;99.90;;;-3.37;96.83;98551.66;5225964;28;20224;-78
2023/01/30 01:07:15;;;;;;;29.10;22.57;;;-3.90;99.90;;;-3.37;98.12;98554.13;5226925;28;20247;-79
2023/01/30 01:09:48;;;;;;;28.77;21.00;;;-4.00;99.90;;;-3.26;98.05;98568.84;5220175;28;20570;-78
2023/01/30 01:12:21;;;;;;;27.73;20.63;;;-3.90;99.90;;;-3.28;98.16;98567.75;5224133;28;20281;-79
2023/01/30 01:14:54;;;;;;;26.37;19.90;;;-3.90;99.90;;;-3.19;98.06;98576.34;5223589;28;20198;-79
2023/01/30 01:17:27;;;;;;;27.10;21.20;;;-3.80;99.90;;;-3.11;97.39;98583.88;5220349;28;20209;-78
2023/01/30 01:20:02;;;;;;;26.30;21.80;;;-3.80;99.90;;;-3.12;97.49;98592.06;5220680;28;20221;-78
2023/01/30 01:22:35;;;;;;;26.10;20.47;;;-3.80;99.90;;;-3.26;97.67;98603.81;5225519;28;20223;-78
2023/01/30 01:25:09;;;;;;;26.27;20.20;;;-3.90;99.90;;;-3.29;97.56;98602.53;5219742;28;20854;-79
2023/01/30 01:27:43;;;;;;;26.27;19.73;;;-3.90;99.90;;;-3.31;97.77;98608.97;5220765;28;20270;-78
2023/01/30 01:30:17;;;;;;;25.73;20.17;;;-3.90;99.90;;;-3.30;98.01;98601.63;5219406;28;20672;-78
2023/01/30 01:32:50;;;;;;;26.03;19.73;;;-3.90;99.90;;;-3.24;98.23;98604.88;5223739;28;20311;-78
2023/01/30 01:35:24;;;;;;;25.03;19.77;;;-3.80;99.90;;;-3.33;97.70;98616.25;5222837;28;20213;-78
2023/01/30 01:37:57;;;;;;;25.67;19.97;;;-3.90;99.90;;;-3.39;98.23;98618.00;5223728;28;20228;-79
2023/01/30 01:43:23;;;;;;;24.70;19.37;;;-3.90;99.90;;;-3.24;98.30;98611.47;5223678;28;20304;-79
2023/01/30 01:46:01;;;;;;;24.07;19.63;;;-3.80;99.90;;;-3.13;98.84;98615.28;5226110;28;20581;-78
2023/01/30 01:48:39;;;;;;;22.20;18.13;;;-3.80;99.90;;;-3.19;98.53;98625.44;5226025;28;20231;-79
2023/01/30 01:51:17;;;;;;;27.13;20.27;;;-3.80;99.90;;;-3.26;98.94;98618.81;5224204;28;20664;-79
2023/01/30 01:53:56;;;;;;;25.77;19.30;;;-3.80;99.90;;;-3.21;98.86;98596.84;5220038;28;20204;-78
2023/01/30 01:56:31;;;;;;;27.33;21.33;;;-3.70;99.90;;;-3.13;99.84;98590.28;5222054;28;20189;-78
2023/01/30 01:59:10;;;;;;;25.90;20.03;;;-3.70;99.90;;;-3.10;100.00;98590.66;5226110;28;20661;-78
2023/01/30 02:01:43;;;;;;;29.93;22.73;;;-3.70;99.90;;;-3.23;99.25;98594.19;5221015;28;20306;-78
2023/01/30 02:05:00;;;;;;;23.67;20.07;;;-3.70;99.90;;;-3.21;100.00;98601.84;5226460;28;20301;-79
2023/01/30 02:07:11;;;;;;;23.57;19.80;;;-3.70;99.90;;;-3.12;100.00;98582.97;5225856;28;20659;-78
2023/01/30 02:09:44;;;;;;;28.13;22.07;;;-3.60;99.90;;;-3.00;99.87;98596.06;5222427;28;20307;-79
2023/01/30 02:12:18;;;;;;;26.27;21.37;;;-3.50;99.90;;;-2.90;100.00;98598.06;5222163;28;20260;-78
2023/01/30 02:14:52;;;;;;;24.70;20.97;;;-3.50;99.90;;;-2.89;99.30;98599.84;5222971;28;20295;-78
2023/01/30 02:17:26;;;;;;;25.50;19.27;;;-3.50;99.90;;;-2.89;99.93;98599.84;5221443;28;20200;-79
2023/01/30 02:20:08;;;;;;;27.03;21.47;;;-3.50;99.90;;;-2.84;100.00;98591.28;5221269;28;20201;-76
2023/01/30 02:23:29;;;;;;;25.87;21.17;;;-3.50;99.90;;;-2.78;100.00;98597.91;5223049;28;20736;-79
2023/01/30 02:26:39;;;;;;;25.77;19.63;;;-3.40;99.90;;;-2.78;99.42;98602.91;5208306;28;20240;-79
2023/01/30 02:29:53;;;;;;;23.83;19.60;;;-3.40;99.90;;;-2.81;99.33;98592.53;5220119;28;20232;-78
2023/01/30 02:32:34;;;;;;;26.33;20.70;;;-3.40;99.90;;;-2.69;99.36;98594.72;5221525;28;20219;-79
2023/01/30 02:35:19;;;;;;;25.67;21.17;;;-3.30;99.90;;;-2.62;100.00;98595.66;5225054;28;20204;-78
2023/01/30 02:38:07;;;;;;;25.57;21.00;;;-3.30;99.90;;;-2.60;100.00;98578.31;5223070;28;20654;-78
2023/01/30 02:40:52;;;;;;;24.43;19.87;;;-3.20;99.90;;;-2.58;99.41;98554.34;5223949;28;20217;-78
2023/01/30 02:43:34;;;;;;;26.20;20.67;;;-3.20;99.90;;;-2.58;99.12;98551.84;5223174;28;20217;-78
2023/01/30 02:46:15;;;;;;;23.30;19.53;;;-3.30;99.90;;;-2.62;98.99;98552.22;5220350;28;20275;-79
2023/01/30 02:48:56;;;;;;;27.93;20.87;;;-3.30;99.90;;;-2.62;98.61;98560.63;5225682;28;20221;-78
2023/01/30 02:51:34;;;;;;;24.50;20.03;;;-3.30;99.90;;;-2.59;98.79;98555.09;5224365;28;20300;-79
2023/01/30 02:54:08;;;;;;;23.53;19.90;;;-3.20;99.90;;;-2.56;99.36;98551.31;5220357;28;20203;-78
2023/01/30 02:56:46;;;;;;;26.70;20.60;;;-3.20;99.90;;;-2.47;99.65;98533.13;5218364;28;20236;-79
2023/01/30 02:59:25;;;;;;;25.40;20.60;;;-3.10;99.90;;;-2.46;98.83;98540.81;5220170;28;20225;-78
2023/01/30 03:02:37;;;;;;;27.70;21.50;;;-3.20;99.90;;;-2.54;99.19;98544.03;5220911;28;20229;-79
2023/01/30 03:05:30;;;;;;;26.80;22.03;;;-3.20;99.90;;;-2.58;99.77;98537.72;5210379;28;20216;-78
2023/01/30 03:08:15;;;;;;;27.47;21.50;;;-3.20;99.90;;;-2.52;99.43;98543.50;5213844;28;20202;-79
2023/01/30 03:10:58;;;;;;;26.00;20.53;;;-3.10;99.90;;;-2.47;98.09;98521.50;5218949;28;20201;-78
2023/01/30 03:13:45;;;;;;;24.93;20.57;;;-3.20;99.90;;;-2.41;98.15;98532.22;5220356;28;20222;-78
2023/01/30 03:16:22;;;;;;;26.87;21.57;;;-3.10;99.90;;;-2.45;98.43;98525.06;5215038;28;20232;-77
2023/01/30 03:18:55;;;;;;;25.53;21.03;;;-3.10;99.90;;;-2.44;99.12;98510.94;5213902;28;20502;-78
2023/01/30 03:21:30;;;;;;;27.13;21.17;;;-3.10;99.90;;;-2.56;98.56;98510.41;5215318;28;20316;-78
2023/01/30 03:24:03;;;;;;;25.63;20.57;;;-3.10;99.90;;;-2.52;100.00;98500.94;5223434;28;20196;-78
2023/01/30 03:26:42;;;;;;;24.37;20.40;;;-3.00;99.90;;;-2.40;99.11;98504.00;5220649;28;20197;-77
2023/01/30 03:29:15;;;;;;;26.80;20.97;;;-3.00;99.90;;;-2.30;99.68;98509.34;5221017;28;20602;-77
2023/01/30 03:31:48;;;;;;;24.67;20.37;;;-2.90;99.90;;;-2.22;99.55;98501.84;5219933;28;20225;-77
2023/01/30 03:34:22;;;;;;;28.83;21.97;;;-2.80;99.90;;;-2.11;100.00;98468.91;5222559;28;20208;-78
2023/01/30 03:36:56;;;;;;;29.07;22.17;;;-2.70;99.90;;;-2.03;99.57;98468.19;5217545;28;20248;-77
2023/01/30 03:39:29;;;;;;;25.27;21.13;;;-2.70;99.90;;;-2.12;99.13;98437.06;5222076;28;20200;-78
2023/01/30 03:42:03;;;;;;;25.47;19.87;;;-2.70;99.90;;;-2.04;99.30;98423.81;5218246;28;20221;-77
2023/01/30 03:44:36;;;;;;;25.93;20.60;;;-2.70;99.90;;;-2.16;99.35;98415.81;5221718;28;20197;-78
2023/01/30 03:47:09;;;;;;;25.33;20.50;;;-2.80;99.90;;;-2.33;99.74;98426.38;5223083;28;20787;-77
2023/01/30 03:49:42;;;;;;;23.87;20.30;;;-2.90;99.90;;;-2.24;99.62;98434.06;5221965;28;20226;-78
2023/01/30 03:52:16;;;;;;;26.77;20.10;;;-2.90;99.90;;;-2.31;100.00;98442.47;5219792;28;20227;-78
2023/01/30 03:54:49;;;;;;;27.43;21.07;;;-2.90;99.90;;;-2.34;100.00;98442.13;5214135;28;20661;-78
2023/01/30 03:57:22;;;;;;;24.67;20.17;;;-2.80;99.90;;;-2.21;100.00;98446.03;5222977;28;20225;-79
2023/01/30 03:59:55;;;;;;;25.80;18.83;;;-2.70;99.90;;;-2.10;100.00;98444.03;5220658;28;20815;-77
2023/01/30 04:02:28;;;;;;;25.40;19.87;;;-2.60;99.90;;;-2.03;100.00;98443.16;5218215;28;20255;-78
2023/01/30 04:05:02;;;;;;;25.17;19.87;;;-2.50;99.90;;;-1.82;99.81;98453.09;5220081;28;20205;-77
2023/01/30 04:07:36;;;;;;;24.60;19.43;;;-2.40;99.90;;;-1.82;99.86;98445.56;5221660;28;20229;-78
2023/01/30 04:10:14;;;;;;;23.63;19.57;;;-2.30;99.90;;;-1.78;99.50;98440.91;5223095;28;20342;-78
2023/01/30 04:12:47;;;;;;;24.67;20.60;;;-2.30;99.90;;;-1.69;100.00;98449.47;5222143;28;20274;-77
2023/01/30 04:15:20;;;;;;;23.63;18.83;;;-2.20;99.90;;;-1.67;100.00;98450.53;5225831;28;20205;-78
2023/01/30 04:17:53;;;;;;;25.83;18.80;;;-2.20;99.90;;;-1.60;100.00;98443.00;5224855;28;20202;-78
2023/01/30 04:20:26;;;;;;;26.00;20.80;;;-2.10;99.90;;;-1.54;100.00;98438.69;5226780;28;20231;-79
2023/01/30 04:23:00;;;;;;;23.43;18.93;;;-2.10;99.90;;;-1.60;99.78;98436.38;5226589;28;20798;-79
2023/01/30 04:25:34;;;;;;;24.40;19.50;;;-2.10;99.90;;;-1.56;99.35;98441.72;5225999;28;20966;-78
2023/01/30 04:28:07;;;;;;;26.10;19.17;;;-2.10;99.90;;;-1.48;100.00;98453.50;5226229;28;20201;-79
2023/01/30 04:30:40;;;;;;;23.70;18.93;;;-2.00;99.90;;;-1.41;99.70;98451.84;5224718;28;20747;-78
2023/01/30 04:33:13;;;;;;;25.43;17.87;;;-1.90;99.90;;;-1.32;100.00;98457.00;5224664;28;20248;-79
2023/01/30 04:35:52;;;;;;;25.53;18.90;;;-1.80;99.90;;;-1.25;100.00;98446.06;5222744;28;20224;-79
2023/01/30 04:38:28;;;;;;;24.03;19.60;;;-1.80;99.90;;;-1.16;100.00;98442.94;5218888;28;20284;-79
2023/01/30 04:41:02;;;;;;;22.87;18.83;;;-1.70;99.90;;;-1.00;100.00;98430.50;5223478;28;20289;-79
2023/01/30 04:43:36;;;;;;;26.47;19.23;;;-1.60;99.90;;;-0.97;99.44;98423.31;5223718;28;20308;-79
2023/01/30 04:46:09;;;;;;;23.40;19.73;;;-1.60;99.90;;;-0.97;99.82;98422.41;5219662;28;20281;-78
2023/01/30 04:48:42;;;;;;;23.93;19.33;;;-1.50;99.90;;;-0.93;99.74;98417.88;5223720;28;20195;-78
2023/01/30 04:51:15;;;;;;;23.70;19.10;;;-1.50;99.90;;;-0.81;100.00;98419.97;5224424;28;20223;-79
2023/01/30 04:53:49;;;;;;;22.53;18.57;;;-1.50;99.90;;;-0.84;99.87;98427.16;5221592;28;20199;-79
2023/01/30 04:56:22;;;;;;;22.53;18.00;;;-1.50;99.90;;;-0.79;98.98;98431.06;5229542;28;20206;-79
2023/01/30 04:58:55;;;;;;;25.23;19.33;;;-1.40;99.90;;;-0.64;98.20;98422.69;5221194;28;20205;-77
2023/01/30 05:01:32;;;;;;;23.77;18.53;;;-1.30;99.90;;;-0.68;98.82;98425.59;5225479;28;20219;-78
2023/01/30 05:04:06;;;;;;;20.90;17.10;;;-1.30;99.90;;;-0.48;96.94;98416.09;5221716;28;20288;-79
2023/01/30 05:06:39;;;;;;;22.13;16.83;;;-1.30;99.90;;;-0.41;95.34;98421.78;5225509;28;20209;-79
2023/01/30 05:09:14;;;;;;;19.43;16.23;;;-1.10;99.90;;;-0.38;95.05;98419.59;5227811;28;20293;-79
2023/01/30 05:11:47;;;;;;;20.43;16.43;;;-1.10;99.90;;;-0.28;94.39;98412.34;5221794;28;20305;-79
2023/01/30 05:14:20;;;;;;;18.27;15.17;;;-1.00;99.90;;;-0.17;92.22;98406.84;5225891;28;20201;-79
2023/01/30 05:16:53;;;;;;;17.60;15.67;;;-0.90;99.90;;;-0.07;92.26;98416.22;5225021;28;20700;-79
2023/01/30 05:19:26;;;;;;;17.13;14.77;;;-0.80;99.90;;;-0.12;91.64;98420.75;5221644;28;20197;-78
2023/01/30 05:21:59;;;;;;;18.00;14.20;;;-0.80;99.90;;;-0.09;91.81;98415.16;5222892;28;20310;-79
2023/01/30 05:24:33;;;;;;;17.60;14.23;;;-0.80;99.90;;;0.07;91.55;98400.13;5224208;28;20284;-78
2023/01/30 05:27:06;;;;;;;17.97;14.70;;;-0.70;99.90;;;0.06;89.77;98395.78;5222597;28;20200;-78
2023/01/30 05:29:40;;;;;;;15.97;13.53;;;-0.60;99.90;;;0.17;88.37;98396.22;5221820;28;20667;-79
2023/01/30 05:32:14;;;;;;;17.33;13.80;;;-0.50;99.90;;;0.04;89.43;98395.66;5226719;28;20223;-79
2023/01/30 05:34:49;;;;;;;17.93;14.57;;;-0.60;99.90;;;0.18;89.74;98394.59;5226956;28;20272;-78
2023/01/30 05:37:23;;;;;;;16.30;13.43;;;-0.60;99.90;;;0.22;88.97;98392.56;5226836;28;20283;-79
2023/01/30 05:39:57;;;;;;;18.43;14.30;;;-0.50;99.90;;;0.10;90.29;98392.91;5225554;28;20628;-79
2023/01/30 05:42:30;;;;;;;16.30;13.60;;;-0.50;99.90;;;0.13;90.24;98385.69;5226428;28;20240;-79
2023/01/30 05:45:04;;;;;;;15.90;12.80;;;-0.50;99.90;;;0.26;89.58;98386.25;5222277;28;20198;-80
2023/01/30 05:47:37;;;;;;;16.40;13.83;;;-0.50;99.90;;;0.39;88.54;98388.41;5223416;28;20204;-78
2023/01/30 05:50:11;;;;;;;16.50;14.00;;;-0.50;99.90;;;0.43;87.97;98380.47;5224061;28;20700;-79
2023/01/30 05:52:44;;;;;;;16.93;13.53;;;-0.40;99.90;;;0.43;87.83;98381.34;5223146;28;20313;-78
2023/01/30 05:55:19;;;;;;;16.23;13.50;;;-0.30;99.90;;;0.34;88.44;98377.84;5223759;28;20291;-79
2023/01/30 05:57:52;;;;;;;17.23;13.83;;;-0.40;99.90;;;0.37;87.48;98362.22;5221680;28;20211;-78
2023/01/30 06:00:26;;;;;;;15.80;13.10;;;-0.40;99.90;;;0.49;88.43;98373.56;5219713;28;20203;-79
2023/01/30 06:02:59;;;;;;;16.10;13.80;;;-0.30;99.90;;;0.43;88.02;98383.88;5221434;28;20830;-78
2023/01/30 06:05:32;;;;;;;18.40;13.90;;;-0.20;99.90;;;0.45;88.13;98384.91;5223545;28;20217;-78
2023/01/30 06:08:06;;;;;;;18.57;14.20;;;-0.30;99.90;;;0.45;88.06;98389.94;5236312;28;20242;-80
2023/01/30 06:10:41;;;;;;;16.73;13.77;;;-0.30;99.90;;;0.53;88.71;98368.09;5241018;28;20224;-79
2023/01/30 06:13:14;;;;;;;15.13;12.77;;;-0.30;99.90;;;0.44;88.80;98372.19;5241328;28;20263;-79
2023/01/30 06:15:47;;;;;;;16.73;14.23;;;-0.30;99.90;;;0.55;89.00;98365.75;5233816;28;20226;-79
2023/01/30 06:18:20;;;;;;;16.87;13.63;;;-0.30;99.90;;;0.58;89.63;98366.06;5241866;28;20207;-78
2023/01/30 06:20:54;;;;;;;16.37;14.67;;;-0.30;99.90;;;0.55;89.62;98360.72;5239333;28;20225;-78
2023/01/30 06:23:28;;;;;;;16.33;13.97;;;-0.30;99.90;;;0.54;88.86;98358.94;5246529;28;20222;-77
2023/01/30 06:26:02;;;;;;;14.37;12.87;;;-0.20;99.90;;;0.44;90.02;98363.00;5247463;28;20197;-79
2023/01/30 06:28:39;;;;;;;17.53;13.77;;;-0.30;99.90;;;0.46;90.44;98353.13;5237085;28;20197;-78
2023/01/30 06:31:12;;;;;;;17.40;13.77;;;-0.30;99.90;;;0.35;91.25;98344.47;5242017;28;20267;-78
2023/01/30 06:33:48;;;;;;;14.90;13.40;;;-0.40;99.90;;;0.50;90.45;98345.16;5247485;28;20193;-79
2023/01/30 06:36:21;;;;;;;16.63;13.43;;;-0.30;99.90;;;0.56;91.00;98340.75;5243672;28;20193;-78
2023/01/30 06:38:54;;;;;;;16.13;13.63;;;-0.30;99.90;;;0.59;90.11;98352.75;5242379;28;20194;-78
2023/01/30 06:41:28;;;;;;;17.33;14.03;;;-0.20;99.90;;;0.61;90.17;98347.16;5243324;28;20213;-76
2023/01/30 06:44:01;;;;;;;16.87;13.87;;;-0.30;99.90;;;0.63;90.33;98347.28;5243479;28;20206;-80
2023/01/30 06:46:34;;;;;;;15.33;12.67;;;-0.30;99.90;;;0.54;90.12;98348.88;5240380;28;20209;-78
2023/01/30 06:49:07;;;;;;;15.33;13.73;;;-0.20;99.90;;;0.41;90.82;98345.09;5238118;28;20271;-77
2023/01/30 06:51:40;;;;;;;16.00;13.73;;;-0.30;99.90;;;0.42;90.63;98349.38;5241341;28;20280;-77
2023/01/30 06:54:14;;;;;;;15.87;12.73;;;-0.30;99.90;;;0.61;89.07;98352.19;5239856;28;20273;-78
2023/01/30 06:56:48;;;;;;;15.87;13.97;;;-0.30;99.90;;;0.64;88.42;98354.13;5240021;28;20221;-78
2023/01/30 06:59:21;;;;;;;14.83;13.10;;;-0.10;99.90;;;0.50;88.66;98356.84;5235063;28;20229;-80
2023/01/30 07:01:54;;;;;;;16.17;12.70;;;-0.10;99.90;;;0.56;88.97;98348.28;5237950;28;20225;-80
2023/01/30 07:04:27;;;;;;;14.57;12.43;;;-0.10;99.90;;;0.55;89.69;98353.19;5238305;28;20214;-79
2023/01/30 07:07:00;;;;;;;14.43;12.83;;;-0.10;99.90;;;0.55;89.31;98348.16;5233517;28;20818;-79
2023/01/30 07:09:33;;;;;;;16.00;12.80;;;-0.10;99.90;;;0.71;88.30;98353.13;5232752;28;20200;-79
2023/01/30 07:12:08;;;;;;;13.57;12.17;;;0.00;99.90;;;0.76;87.98;98342.78;5231020;28;20225;-81
2023/01/30 07:14:41;;;;;;;12.63;11.33;;;0.00;99.90;;;0.81;87.00;98350.81;5228532;28;20337;-82
2023/01/30 07:17:14;;;;;;;13.23;11.63;;;0.00;99.90;;;0.91;85.81;98356.03;5227996;28;20214;-82
2023/01/30 07:19:48;;;;;;;12.30;10.90;;;0.10;99.90;;;0.97;85.54;98358.28;5227993;28;20208;-80
2023/01/30 07:22:21;;;;;;;12.97;11.50;;;0.20;99.90;;;1.11;83.55;98365.63;5220751;28;20226;-80
2023/01/30 07:24:54;;;;;;;11.77;10.37;;;0.30;99.90;;;1.22;82.87;98370.09;5226033;28;20649;-79
2023/01/30 07:27:28;;;;;;;12.40;10.97;;;0.40;99.90;;;1.05;82.73;98367.50;5222518;28;20211;-81
2023/01/30 07:30:01;;;;;;;11.70;10.50;;;0.40;99.90;;;1.15;82.67;98372.75;5224042;28;20296;-80
2023/01/30 07:32:34;;;;;;;11.83;10.50;;;0.40;99.90;;;1.10;82.62;98362.22;5228299;28;20227;-80
2023/01/30 07:35:08;;;;;;;11.53;10.20;;;0.40;99.90;;;1.25;81.95;98375.44;5221622;28;20196;-80
2023/01/30 07:37:45;;;;;;;10.80;9.70;;;0.50;99.90;;;1.37;81.45;98374.91;5220705;28;20201;-81
2023/01/30 07:40:19;;;;;;;11.13;9.93;;;0.60;99.90;;;1.40;81.39;98367.66;5223246;28;20204;-81
2023/01/30 07:43:02;;;;;;;11.20;9.57;;;0.70;99.90;;;1.33;81.60;98367.03;5229574;28;20223;-81
2023/01/30 07:45:38;;;;;;;11.60;10.07;;;0.60;99.90;;;1.38;81.29;98364.13;5233034;28;20207;-80
2023/01/30 07:48:14;;;;;;;10.87;9.77;;;0.60;99.90;;;1.30;80.57;98364.22;5229944;28;20200;-81
2023/01/30 07:50:47;;;;;;;11.97;10.30;;;0.70;99.90;;;1.34;81.33;98357.84;5228072;28;20218;-81
2023/01/30 07:53:20;;;;;;;11.60;9.63;;;0.60;99.90;;;1.45;79.92;98362.34;5231217;28;20606;-81
2023/01/30 07:55:53;;;;;;;10.83;9.77;;;0.80;99.90;;;1.41;80.42;98362.78;5227084;28;20725;-81
2023/01/30 07:58:28;;;;;;;10.20;9.10;;;0.70;99.90;;;1.42;80.22;98361.16;5231745;28;20198;-81
2023/01/30 08:01:03;;;;;;;10.70;9.67;;;0.70;99.90;;;1.28;80.65;98370.72;5225104;28;20241;-81
2023/01/30 08:03:36;;;;;;;12.47;10.27;;;0.70;99.90;;;1.43;80.58;98373.00;5225277;28;20212;-80
2023/01/30 08:06:09;;;;;;;11.57;10.37;;;0.80;99.90;;;1.28;81.93;98368.19;5221844;28;20225;-81
2023/01/30 08:08:43;;;;;;;11.47;10.13;;;0.70;99.90;;;1.47;80.34;98370.94;5228591;28;20620;-80
2023/01/30 08:11:17;;;;;;;11.63;10.47;;;0.70;99.90;;;1.52;80.44;98363.88;5222910;28;20294;-80
2023/01/30 08:13:51;;;;;;;11.60;10.20;;;0.70;99.90;;;1.66;79.61;98371.16;5227628;28;20226;-81
2023/01/30 08:16:24;;;;;;;11.93;10.63;;;0.80;99.90;;;1.63;78.93;98349.78;5228608;28;20288;-81
2023/01/30 08:18:58;;;;;;;11.00;9.80;;;0.80;99.90;;;1.59;80.20;98366.25;5222267;28;20213;-80
2023/01/30 08:21:31;;;;;;;11.10;9.97;;;0.80;99.90;;;1.59;81.10;98373.78;5222392;28;20520;-81
2023/01/30 08:24:04;;;;;;;10.93;9.80;;;0.80;99.90;;;1.67;80.29;98385.53;5219493;28;20292;-81
2023/01/30 08:26:37;;;;;;;11.13;10.13;;;0.80;99.90;;;1.58;79.97;98390.53;5227309;28;20290;-81
2023/01/30 08:29:12;;;;;;;11.77;10.60;;;0.80;99.90;;;1.60;80.38;98378.09;5227204;28;20210;-80
2023/01/30 08:31:45;;;;;;;11.47;10.10;;;0.90;99.90;;;1.66;81.23;98353.53;5225689;28;20227;-81
2023/01/30 08:34:18;;;;;;;10.43;9.33;;;0.80;99.90;;;1.74;81.08;98367.75;5225354;28;20204;-81
2023/01/30 08:36:51;;;;;;;10.43;9.43;;;1.00;99.90;;;1.83;81.47;98369.41;5232782;28;20223;-81
2023/01/30 08:39:24;;;;;;;11.00;9.90;;;1.10;99.90;;;1.95;79.98;98337.88;5225094;28;20221;-81
2023/01/30 08:41:57;;;;;;;11.70;9.80;;;1.30;99.90;;;1.73;81.67;98327.31;5220524;28;20220;-80
2023/01/30 08:44:32;;;;;;;11.30;9.77;;;1.10;99.90;;;1.60;82.50;98329.34;5221805;28;20200;-81
2023/01/30 08:47:05;;;;;;;12.33;11.03;;;1.00;99.90;;;1.60;84.36;98337.78;5229830;28;20208;-81
2023/01/30 08:49:38;;;;;;;11.60;10.43;;;0.90;99.90;;;1.62;84.65;98355.59;5223922;28;20209;-81
2023/01/30 08:52:11;;;;;;;10.50;9.50;;;0.90;99.90;;;1.50;85.62;98351.09;5223062;28;20307;-81
2023/01/30 08:54:44;;;;;;;12.40;10.90;;;0.80;99.90;;;1.64;84.85;98344.91;5232187;28;20217;-81
2023/01/30 08:57:17;;;;;;;13.00;9.90;;;0.90;99.90;;;1.79;84.13;98323.75;5227717;28;20214;-81
2023/01/30 08:59:52;;;;;;;11.20;9.40;;;1.10;99.90;;;1.70;84.94;98317.81;5228600;28;20295;-81
2023/01/30 09:02:25;;;;;;;10.93;9.37;;;1.00;99.90;;;1.68;86.02;98316.75;5227011;28;20306;-81
2023/01/30 09:04:58;;;;;;;11.80;10.47;;;1.00;99.90;;;1.87;84.20;98328.66;5231109;28;20219;-81
2023/01/30 09:07:31;;;;;;;11.10;9.23;;;1.10;99.90;;;1.84;83.99;98318.28;5221286;28;20753;-80
2023/01/30 09:10:06;;;;;;;10.63;9.53;;;1.20;99.90;;;1.83;85.11;98298.84;5232182;28;20289;-81
2023/01/30 09:12:39;;;;;;;10.63;9.53;;;1.10;99.90;;;1.84;85.53;98283.88;5229156;28;20234;-80
2023/01/30 09:15:13;;;;;;;10.93;9.83;;;1.10;99.90;;;1.99;84.39;98284.47;5228532;28;20209;-81
2023/01/30 09:17:46;;;;;;;11.57;10.37;;;1.20;99.90;;;2.13;83.61;98284.16;5230875;28;20211;-80
2023/01/30 09:20:20;;;;;;;10.67;9.57;;;1.40;99.90;;;2.09;83.88;98284.63;5225666;28;20292;-81
2023/01/30 09:22:53;;;;;;;10.50;9.37;;;1.30;99.90;;;2.19;84.21;98279.72;5232435;28;20304;-81
2023/01/30 09:25:26;;;;;;;10.07;9.10;;;1.40;99.90;;;2.15;83.91;98277.66;5226901;28;20269;-81
2023/01/30 09:27:59;;;;;;;9.67;8.73;;;1.30;99.90;;;2.19;82.75;98287.28;5218944;28;20607;-81
2023/01/30 09:30:34;;;;;;;12.03;9.93;;;1.50;99.90;;;2.23;81.19;98296.94;5227955;28;20225;-81
2023/01/30 09:33:07;;;;;;;11.13;9.17;;;1.70;99.90;;;2.28;82.55;98288.91;5231852;28;20682;-81
2023/01/30 09:35:40;;;;;;;8.77;7.87;;;1.60;99.90;;;2.35;80.47;98266.94;5224866;28;20300;-80
2023/01/30 09:38:13;;;;;;;9.53;8.23;;;1.80;99.90;;;2.32;80.15;98286.84;5229090;28;20252;-81
2023/01/30 09:41:06;;;;;;;9.27;8.33;;;1.80;99.90;;;2.32;80.17;98284.31;5230213;28;20193;-80
2023/01/30 09:43:59;;;;;;;10.50;7.40;;;1.80;99.90;;;2.48;79.45;98284.13;5227673;28;20197;-81
2023/01/30 09:46:48;;;;;;;9.43;7.80;;;1.70;99.90;;;2.63;78.64;98278.00;5228819;28;20253;-81
2023/01/30 09:49:35;;;;;;;8.73;7.80;;;2.00;99.90;;;2.68;79.82;98266.69;5223577;28;20278;-81
2023/01/30 09:52:24;;;;;;;11.07;8.13;;;2.10;99.90;;;2.59;80.69;98260.78;5226821;28;20264;-81
2023/01/30 09:55:03;;;;;;;9.03;8.13;;;1.90;99.90;;;2.51;80.23;98248.19;5230093;28;20293;-81
2023/01/30 09:57:36;;;;;;;9.33;8.33;;;1.80;99.90;;;2.63;79.72;98252.78;5223223;28;20229;-81
2023/01/30 10:00:21;;;;;;;11.00;8.47;;;1.90;99.90;;;2.90;79.26;98246.00;5229068;28;20288;-81
2023/01/30 10:03:05;;;;;;;9.00;8.10;;;1.90;99.90;;;2.84;79.02;98237.84;5227563;28;20257;-81
2023/01/30 10:05:44;;;;;;;9.23;8.27;;;2.00;99.90;;;2.78;80.23;98239.81;5220826;28;20292;-81
2023/01/30 10:08:43;;;;;;;8.50;7.60;;;2.00;99.90;;;2.85;79.36;98232.94;5230966;28;20206;-81
2023/01/30 10:11:32;;;;;;;8.70;7.80;;;2.00;99.90;;;2.93;80.10;98241.22;5222010;28;20295;-81
2023/01/30 10:14:32;;;;;;;8.60;7.80;;;2.00;99.90;;;3.03;79.05;98223.63;5223219;28;20221;-80
2023/01/30 10:17:29;;;;;;;8.13;7.30;;;2.20;99.90;;;2.89;80.13;98204.72;5224542;28;20201;-81
2023/01/30 10:20:30;;;;;;;9.17;7.33;;;2.10;99.90;;;3.10;79.13;98194.81;5222128;28;20224;-81
2023/01/30 10:23:34;;;;;;;8.60;7.73;;;2.20;99.90;;;3.06;78.96;98198.69;5218439;28;20262;-81
2023/01/30 10:26:11;;;;;;;9.13;7.53;;;2.30;99.90;;;3.01;80.35;98194.84;5227104;28;20655;-81
2023/01/30 10:28:56;;;;;;;8.53;7.73;;;2.20;99.90;;;3.16;79.75;98188.66;5217186;28;20201;-80
2023/01/30 10:31:45;;;;;;;7.50;6.80;;;2.20;99.90;;;3.07;80.05;98190.34;5226469;28;20668;-80
2023/01/30 10:34:23;;;;;;;9.70;8.47;;;2.30;99.90;;;3.07;80.26;98187.84;5222378;28;20221;-80
2023/01/30 10:37:07;;;;;;;8.30;7.47;;;2.30;99.90;;;3.14;80.44;98182.56;5225450;28;20595;-80
2023/01/30 10:39:47;;;;;;;7.80;6.83;;;2.40;99.90;;;3.16;80.83;98191.19;5226411;28;20227;-80
2023/01/30 10:42:34;;;;;;;7.87;7.07;;;2.40;99.90;;;3.27;79.88;98188.75;5224584;28;20217;-80
2023/01/30 10:45:14;;;;;;;7.47;6.50;;;2.50;99.90;;;3.30;80.69;98191.56;5215728;28;20210;-82
2023/01/30 10:48:09;;;;;;;7.63;6.20;;;2.60;99.90;;;3.45;80.44;98182.81;5222304;28;20197;-80
2023/01/30 10:50:51;;;;;;;15.13;12.80;;;2.60;99.90;;;3.38;81.56;98185.56;5219648;28;20205;-80
2023/01/30 10:53:32;;;;;;;8.03;7.23;;;2.60;99.90;;;3.51;80.78;98185.88;5223449;28;20238;-81
2023/01/30 10:56:15;;;;;;;7.93;7.13;;;2.70;99.90;;;3.54;80.67;98172.63;5222249;28;20228;-81
2023/01/30 10:58:58;;;;;;;32.67;23.93;;;2.80;99.90;;;3.63;80.74;98172.56;5225233;28;20207;-81
2023/01/30 11:01:37;;;;;;;88.13;58.00;;;2.80;99.90;;;3.63;81.87;98177.63;5228331;28;20252;-81